Mozajsk, Russia
Current Conditions -  °F | °C
As of 11:30 PM on Thursday 23 Oct 2014 (Local Time) from UUWW Reporting Station
Broken Clouds Broken Clouds  
Wind Chill: 13°   Ceiling: 1400
Heat Index: 19°   Visibility: 6mi
Dew Point: 16°   Wind: 4mph
Humidity: 86%   Direction: 290°WNW
Pressure: 30.39"   Gusts: NA
Location:  55.49°N, 36.04°E
Report Text: UUWW 232030Z 29002MPS 9999 BKN014 M07/M09 Q1029 01190040 NOSIG
Loading
Personal Weather Stations






























Interactive Weather Map
Tropical Storm Tracking
New forecast layout! Learn more

10-Day Weather Forecast

Advertisements
Track Severe Weather on mobile